Terminal Aerodrome Forecast
Issued by NWS Tuscon, AZ

Home | Current Version | Previous Version | Text Only | Print | Product List | Glossary On
Versions: 1 2 3 4 5 6 7 8 9 10 11 12 13 14 15 16 17 18
000
FTUS45 KTWC 260500
TAFDUG
TAF
KDUG 260520Z 2606/2706 31014KT P6SM SCT120
     FM261000 10008KT P6SM FEW120
     FM261900 29012KT P6SM SCT070
     FM262300 31014G22KT P6SM VCSH SCT080 BKN120=

USA.gov is the U.S. government's official web portal to all federal, state and local government web resources and services.